createdAt,value
2018-04-11T03:02:03.006Z,9.70
2018-04-11T03:04:32.116Z,9.70
2018-04-11T03:07:00.422Z,9.70
2018-04-11T03:09:28.747Z,9.90
2018-04-11T03:11:57.047Z,9.60
2018-04-11T03:14:26.137Z,9.70
2018-04-11T03:16:55.211Z,9.80
2018-04-11T03:19:23.543Z,9.80
2018-04-11T03:21:51.870Z,9.80
2018-04-11T03:24:20.180Z,10.00
2018-04-11T03:26:48.487Z,10.20
2018-04-11T03:29:16.815Z,9.80
2018-04-11T03:31:45.115Z,9.70
2018-04-11T03:34:13.431Z,9.70
2018-04-11T03:36:41.730Z,9.80
2018-04-11T03:39:10.116Z,9.90
2018-04-11T03:41:38.447Z,9.90
2018-04-11T03:44:07.520Z,9.60
2018-04-11T03:46:35.847Z,9.60
2018-04-11T03:49:04.154Z,9.30
2018-04-11T03:51:32.522Z,9.50
2018-04-11T03:54:00.833Z,9.60
2018-04-11T03:56:29.149Z,9.70
2018-04-11T03:58:57.469Z,9.80
2018-04-11T04:01:26.566Z,9.90
2018-04-11T04:03:54.895Z,9.90
2018-04-11T04:06:23.222Z,9.90
2018-04-11T04:08:52.282Z,9.80
2018-04-11T04:11:20.605Z,9.80
2018-04-11T04:17:08.449Z,9.80
2018-04-11T04:19:48.656Z,9.80
2018-04-11T04:22:16.973Z,9.80
2018-04-11T04:24:45.289Z,9.90
2018-04-11T04:27:13.617Z,9.90
2018-04-11T04:29:41.926Z,10.00
2018-04-11T04:32:10.281Z,10.10
2018-04-11T04:34:38.598Z,10.10
2018-04-11T04:37:06.933Z,9.90
2018-04-11T04:39:35.257Z,10.10
2018-04-11T04:42:03.596Z,10.20
2018-04-11T04:44:31.913Z,10.00
2018-04-11T04:47:00.218Z,10.00
2018-04-11T04:49:29.318Z,10.10
2018-04-11T04:51:57.636Z,10.10
2018-04-11T04:54:25.962Z,10.10
2018-04-11T04:56:55.052Z,10.10
2018-04-11T04:59:24.158Z,10.10
2018-04-11T05:01:53.236Z,10.10
2018-04-11T05:04:21.579Z,10.10
2018-04-11T05:06:49.893Z,10.00
2018-04-11T05:09:18.231Z,9.80
2018-04-11T05:11:46.559Z,9.80
2018-04-11T05:14:15.661Z,9.90
2018-04-11T05:16:44.747Z,9.80
2018-04-11T05:19:13.838Z,9.80
2018-04-11T05:21:42.197Z,9.70
2018-04-11T05:24:10.494Z,9.80
2018-04-11T05:26:38.806Z,9.80
2018-04-11T05:29:07.139Z,9.90
2018-04-11T05:31:35.466Z,10.10
2018-04-11T05:34:03.811Z,10.00
2018-04-11T05:36:32.883Z,10.10
2018-04-11T05:39:01.231Z,10.10
2018-04-11T05:41:29.576Z,10.10
2018-04-11T05:43:58.658Z,10.10
2018-04-11T05:46:27.756Z,10.00
2018-04-11T05:48:56.831Z,10.10
2018-04-11T05:51:25.165Z,10.10
2018-04-11T05:53:53.476Z,10.10
2018-04-11T05:56:21.807Z,10.10
2018-04-11T05:58:50.180Z,10.30
2018-04-11T06:01:18.476Z,10.30
2018-04-11T06:03:46.793Z,10.40
2018-04-11T06:06:15.134Z,10.40
2018-04-11T06:08:43.459Z,10.30
2018-04-11T06:11:11.801Z,10.50
2018-04-11T06:13:40.122Z,10.60
2018-04-11T06:16:09.232Z,10.40
2018-04-11T06:18:38.304Z,10.30
2018-04-11T06:21:06.635Z,10.40
2018-04-11T06:23:34.952Z,10.50
2018-04-11T06:26:03.311Z,10.60
2018-04-11T06:28:31.627Z,10.60
2018-04-11T06:31:00.734Z,10.80
2018-04-11T06:33:29.811Z,10.70
2018-04-11T06:35:58.160Z,10.60
2018-04-11T06:38:26.484Z,10.90
2018-04-11T06:40:55.600Z,10.80
2018-04-11T06:43:23.912Z,10.80
2018-04-11T06:45:52.228Z,10.90
2018-04-11T06:48:21.323Z,11.50
2018-04-11T06:50:50.466Z,11.70
2018-04-11T06:53:18.807Z,11.70
2018-04-11T06:55:47.887Z,11.60
2018-04-11T06:58:16.236Z,11.60
2018-04-11T07:00:44.558Z,12.10
2018-04-11T07:03:13.671Z,12.70
2018-04-11T07:05:42.007Z,12.70
2018-04-11T07:08:10.331Z,12.40
2018-04-11T07:10:38.668Z,12.40
2018-04-11T07:13:07.002Z,12.40
2018-04-11T07:15:35.321Z,12.20
2018-04-11T07:18:03.694Z,12.50
2018-04-11T07:20:32.074Z,12.50
2018-04-11T07:23:00.752Z,13.00
2018-04-11T07:25:29.476Z,13.20
2018-04-11T07:27:57.844Z,13.70
2018-04-11T07:30:26.923Z,14.60
2018-04-11T07:32:55.257Z,14.60
2018-04-11T07:35:23.571Z,12.60
2018-04-11T07:37:51.900Z,12.30
2018-04-11T07:40:20.248Z,13.10
2018-04-11T07:42:49.429Z,13.70
2018-04-11T07:45:17.781Z,13.70
2018-04-11T07:47:46.120Z,13.30
2018-04-11T07:50:14.459Z,14.00
2018-04-11T07:52:42.771Z,14.00
2018-04-11T07:55:11.880Z,14.40
2018-04-11T07:57:40.197Z,14.40
2018-04-11T08:00:08.528Z,14.60
2018-04-11T08:02:36.848Z,14.80
2018-04-11T08:05:05.203Z,15.50
2018-04-11T08:07:33.585Z,15.70
2018-04-11T08:10:01.955Z,14.90
2018-04-11T08:12:30.284Z,15.30
2018-04-11T08:14:58.617Z,15.40
2018-04-11T08:17:26.932Z,16.00
2018-04-11T08:19:55.299Z,16.20
2018-04-11T08:22:23.610Z,16.30
2018-04-11T08:24:52.687Z,17.00
2018-04-11T08:27:21.007Z,16.90
2018-04-11T08:29:49.319Z,16.50
2018-04-11T08:32:17.651Z,16.00
2018-04-11T08:34:46.724Z,17.10
2018-04-11T08:37:15.055Z,17.00
2018-04-11T08:39:43.354Z,17.20
2018-04-11T08:42:11.709Z,17.30
2018-04-11T08:44:40.021Z,17.20
2018-04-11T08:47:08.351Z,17.00
2018-04-11T08:49:36.659Z,16.90
2018-04-11T08:52:04.981Z,17.10
2018-04-11T08:54:33.293Z,16.90
2018-04-11T08:57:01.611Z,16.80
2018-04-11T08:59:29.915Z,16.90
2018-04-11T09:01:59.019Z,17.50
2018-04-11T09:04:28.102Z,17.40
2018-04-11T09:06:56.423Z,17.40
2018-04-11T09:09:24.759Z,17.60
2018-04-11T09:11:53.848Z,18.60
2018-04-11T09:14:22.180Z,18.60
2018-04-11T09:16:50.487Z,18.90
2018-04-11T09:19:18.816Z,18.80
2018-04-11T09:21:47.138Z,17.80
2018-04-11T09:24:15.464Z,17.70
2018-04-11T09:26:43.786Z,17.90
2018-04-11T09:29:12.115Z,17.50
2018-04-11T09:31:41.219Z,17.80
2018-04-11T09:34:09.555Z,17.80
2018-04-11T09:36:37.872Z,17.60
2018-04-11T09:39:06.210Z,17.90
2018-04-11T09:41:34.516Z,18.60
2018-04-11T09:44:03.619Z,18.70
2018-04-11T09:46:31.941Z,18.60
2018-04-11T09:49:00.263Z,18.50
2018-04-11T09:51:28.611Z,18.80
2018-04-11T09:53:56.925Z,18.70
2018-04-11T09:56:25.254Z,19.10
2018-04-11T09:58:53.576Z,18.90
2018-04-11T10:01:21.904Z,18.50
2018-04-11T10:03:50.213Z,19.20
2018-04-11T10:06:18.595Z,18.80
2018-04-11T10:08:46.914Z,19.10
2018-04-11T10:11:15.257Z,19.70
2018-04-11T10:13:44.330Z,19.20
2018-04-11T10:16:12.652Z,19.20
2018-04-11T10:18:40.969Z,18.30
2018-04-11T10:21:09.301Z,18.00
2018-04-11T10:23:38.372Z,18.10
2018-04-11T10:26:06.687Z,18.10
2018-04-11T10:28:35.028Z,17.70
2018-04-11T10:31:03.362Z,18.00
2018-04-11T10:33:31.681Z,18.40
2018-04-11T10:35:59.996Z,19.20
2018-04-11T10:38:28.319Z,18.30
2018-04-11T10:40:56.624Z,17.90
2018-04-11T10:43:24.950Z,16.80
2018-04-11T10:45:53.307Z,17.50
2018-04-11T10:48:21.663Z,17.90
2018-04-11T10:50:49.967Z,17.40
2018-04-11T10:53:18.294Z,17.50
2018-04-11T10:55:46.617Z,17.40
2018-04-11T10:58:14.955Z,17.20
2018-04-11T11:00:43.263Z,17.10
2018-04-11T11:03:12.378Z,16.90
2018-04-11T11:05:40.692Z,16.90
2018-04-11T11:08:08.999Z,16.90
2018-04-11T11:10:37.325Z,16.80
2018-04-11T11:13:05.666Z,16.80
2018-04-11T11:15:34.066Z,17.40
2018-04-11T11:18:02.386Z,16.20
2018-04-11T11:20:30.739Z,17.00
2018-04-11T11:22:59.054Z,17.40
2018-04-11T11:25:27.383Z,17.80
2018-04-11T11:27:55.707Z,17.60
2018-04-11T11:30:24.034Z,17.90
2018-04-11T11:32:52.357Z,18.00
2018-04-11T11:35:20.684Z,17.00
2018-04-11T11:37:49.104Z,17.10
2018-04-11T11:40:17.430Z,17.60
2018-04-11T11:42:46.495Z,18.30
2018-04-11T11:45:14.840Z,18.30
2018-04-11T11:47:43.158Z,18.70
2018-04-11T11:50:11.462Z,18.80
2018-04-11T11:52:40.567Z,16.90
2018-04-11T11:55:08.872Z,16.90
2018-04-11T11:57:37.195Z,17.30
2018-04-11T12:00:06.888Z,17.20
2018-04-11T12:02:35.212Z,17.20
2018-04-11T12:05:03.523Z,17.20
2018-04-11T12:07:31.849Z,17.30
2018-04-11T12:10:00.919Z,17.40
2018-04-11T12:12:30.038Z,17.60
2018-04-11T12:14:59.104Z,17.60
2018-04-11T12:17:27.431Z,17.60
2018-04-11T12:19:55.738Z,16.90
2018-04-11T12:22:24.066Z,17.10
2018-04-11T12:24:53.146Z,17.70
2018-04-11T12:27:21.479Z,17.70
2018-04-11T12:29:49.775Z,18.20
2018-04-11T12:32:18.081Z,17.40
2018-04-11T12:34:46.400Z,17.50
2018-04-11T12:37:14.705Z,17.40
2018-04-11T12:39:43.023Z,17.00
2018-04-11T12:42:12.092Z,16.60
2018-04-11T12:44:40.407Z,16.60
2018-04-11T12:47:08.714Z,16.60
2018-04-11T12:49:37.041Z,16.70
2018-04-11T12:52:05.353Z,17.30
2018-04-11T12:54:33.675Z,16.80
2018-04-11T12:57:01.979Z,16.70
2018-04-11T12:59:31.070Z,17.10
2018-04-11T13:01:59.377Z,17.10
2018-04-11T13:04:27.701Z,16.20
2018-04-11T13:06:55.990Z,16.30
2018-04-11T13:09:24.327Z,16.30
2018-04-11T13:11:52.650Z,16.40
2018-04-11T13:14:20.964Z,16.90
2018-04-11T13:16:49.400Z,16.50
2018-04-11T13:19:17.711Z,16.40
2018-04-11T13:21:46.095Z,15.80
2018-04-11T13:24:14.400Z,16.20
2018-04-11T13:26:42.722Z,16.10
2018-04-11T13:29:11.016Z,15.90
2018-04-11T13:31:40.155Z,16.70
2018-04-11T13:34:09.250Z,16.80
2018-04-11T13:36:37.628Z,16.70
2018-04-11T13:39:05.929Z,16.30
2018-04-11T13:41:34.368Z,16.40
2018-04-11T13:44:02.681Z,16.50
2018-04-11T13:46:31.863Z,17.00
2018-04-11T13:49:00.191Z,17.00
2018-04-11T13:51:29.264Z,17.30
2018-04-11T13:53:57.574Z,17.30
2018-04-11T13:56:26.651Z,17.10
2018-04-11T13:58:54.979Z,17.10
2018-04-11T14:01:23.293Z,17.20
2018-04-11T14:03:51.616Z,17.10
2018-04-11T14:06:20.020Z,17.00
2018-04-11T14:08:48.349Z,17.10
2018-04-11T14:11:16.716Z,17.20
2018-04-11T14:13:45.054Z,17.30
2018-04-11T14:16:13.374Z,17.20
2018-04-11T14:18:41.696Z,16.90
2018-04-11T14:21:10.019Z,17.30
2018-04-11T14:23:38.347Z,17.10
2018-04-11T14:26:06.657Z,17.50
2018-04-11T14:28:34.955Z,17.60
2018-04-11T14:31:04.010Z,17.50
2018-04-11T14:33:32.320Z,17.50
2018-04-11T14:36:00.656Z,17.50
2018-04-11T14:38:28.960Z,17.40
2018-04-11T14:40:57.288Z,17.30
2018-04-11T14:43:25.614Z,17.40
2018-04-11T14:45:53.940Z,17.50
2018-04-11T14:48:23.006Z,17.50
2018-04-11T14:50:51.541Z,17.50
2018-04-11T14:53:19.850Z,17.60
2018-04-11T14:55:48.170Z,17.90
2018-04-11T14:58:16.466Z,17.60
2018-04-11T15:00:44.803Z,17.60
2018-04-11T15:03:13.107Z,17.40
2018-04-11T15:05:42.206Z,17.30
2018-04-11T15:08:10.510Z,17.20
2018-04-11T15:10:38.826Z,17.50
2018-04-11T15:13:07.145Z,17.70
2018-04-11T15:15:35.464Z,17.60
2018-04-11T15:18:03.834Z,17.50
2018-04-11T15:20:32.141Z,17.30
2018-04-11T15:23:00.473Z,17.50
2018-04-11T15:25:28.783Z,17.70
2018-04-11T15:27:57.110Z,17.40
2018-04-11T15:30:25.407Z,17.30
2018-04-11T15:32:53.733Z,17.30
2018-04-11T15:35:22.040Z,17.60
2018-04-11T15:37:50.412Z,17.50
2018-04-11T15:40:19.483Z,17.00
2018-04-11T15:42:47.805Z,17.00
2018-04-11T15:45:16.116Z,17.10
2018-04-11T15:47:44.436Z,17.40
2018-04-11T15:50:13.504Z,17.60
2018-04-11T15:52:41.870Z,17.60
2018-04-11T15:55:10.150Z,17.70
2018-04-11T15:57:38.475Z,17.60
2018-04-11T16:00:07.499Z,17.50
2018-04-11T16:02:35.822Z,17.40
2018-04-11T16:05:04.130Z,17.60
2018-04-11T16:07:32.462Z,17.50
2018-04-11T16:10:00.775Z,17.50
2018-04-11T16:12:29.859Z,17.70
2018-04-11T16:14:58.947Z,17.30
2018-04-11T16:17:27.257Z,17.30
2018-04-11T16:19:55.578Z,17.30
2018-04-11T16:22:23.892Z,17.30
2018-04-11T16:24:52.983Z,17.30
2018-04-11T16:27:21.304Z,17.30
2018-04-11T16:29:49.637Z,17.60
2018-04-11T16:32:18.721Z,17.20
2018-04-11T16:34:47.043Z,17.20
2018-04-11T16:37:15.361Z,17.20
2018-04-11T16:39:43.683Z,17.40
2018-04-11T16:42:12.747Z,17.40
2018-04-11T16:44:41.079Z,17.40
2018-04-11T16:47:09.383Z,17.30
2018-04-11T16:49:37.725Z,17.30
2018-04-11T16:52:06.048Z,17.20
2018-04-11T16:54:34.371Z,17.20
2018-04-11T16:57:02.676Z,17.20
2018-04-11T16:59:30.995Z,17.20
2018-04-11T17:01:59.294Z,17.10
2018-04-11T17:04:28.391Z,16.80
2018-04-11T17:06:57.471Z,16.80
2018-04-11T17:09:26.554Z,16.70
2018-04-11T17:11:54.865Z,16.70
2018-04-11T17:14:23.195Z,16.70
2018-04-11T17:16:51.519Z,16.70
2018-04-11T17:19:19.848Z,16.60
2018-04-11T17:21:59.987Z,16.50
2018-04-11T17:24:40.165Z,16.60
2018-04-11T17:27:20.399Z,16.60
2018-04-11T17:30:00.560Z,16.60
2018-04-11T17:32:28.883Z,16.60
2018-04-11T17:34:57.961Z,16.60
2018-04-11T17:37:26.287Z,16.50
2018-04-11T17:39:54.599Z,16.60
2018-04-11T17:42:22.923Z,16.50
2018-04-11T17:44:51.233Z,16.30
2018-04-11T17:47:19.559Z,16.20
2018-04-11T17:49:47.875Z,16.10
2018-04-11T17:52:16.235Z,16.10
2018-04-11T17:54:45.316Z,15.70
2018-04-11T17:57:13.656Z,15.70
2018-04-11T17:59:41.971Z,15.60
2018-04-11T18:02:11.054Z,15.60
2018-04-11T18:04:39.373Z,15.60
2018-04-11T18:07:07.719Z,15.60
2018-04-11T18:09:36.813Z,16.00
2018-04-11T18:12:05.935Z,16.10
2018-04-11T18:14:34.243Z,16.10
2018-04-11T18:17:02.580Z,15.90
2018-04-11T18:19:31.656Z,16.20
2018-04-11T18:22:00.737Z,16.30
2018-04-11T18:24:29.063Z,16.30
2018-04-11T18:26:57.364Z,16.10
2018-04-11T18:29:25.699Z,16.20
2018-04-11T18:31:54.773Z,15.80
2018-04-11T18:34:23.100Z,15.80
2018-04-11T18:36:51.407Z,15.80
2018-04-11T18:39:20.563Z,15.30
2018-04-11T18:41:48.876Z,15.30
2018-04-11T18:44:17.204Z,15.40
2018-04-11T18:46:46.297Z,15.50
2018-04-11T18:49:15.387Z,15.20
2018-04-11T18:51:44.465Z,15.00
2018-04-11T18:54:12.790Z,14.90
2018-04-11T18:56:41.099Z,14.70
2018-04-11T18:59:09.438Z,14.90
2018-04-11T19:01:37.755Z,15.00
2018-04-11T19:04:06.091Z,15.10
2018-04-11T19:06:34.435Z,15.40
2018-04-11T19:09:02.783Z,15.40
2018-04-11T19:11:31.138Z,15.40
2018-04-11T19:13:59.490Z,15.20
2018-04-11T19:16:28.563Z,14.50
2018-04-11T19:18:56.873Z,14.40
2018-04-11T19:21:25.966Z,13.70
2018-04-11T19:23:55.037Z,13.80
2018-04-11T19:26:23.378Z,13.80
2018-04-11T19:28:51.679Z,14.10
2018-04-11T19:31:20.020Z,14.00
2018-04-11T19:33:48.332Z,13.90
2018-04-11T19:36:16.659Z,13.90
2018-04-11T19:38:44.968Z,13.80
2018-04-11T19:41:13.294Z,13.70
2018-04-11T19:43:42.365Z,13.80
2018-04-11T19:46:10.682Z,13.70
2018-04-11T19:48:38.987Z,13.80
2018-04-11T19:51:07.312Z,13.70
2018-04-11T19:53:35.649Z,13.50
2018-04-11T19:56:03.987Z,13.30
2018-04-11T19:58:32.567Z,13.30
2018-04-11T20:01:01.679Z,13.00
2018-04-11T20:03:29.987Z,13.00
2018-04-11T20:05:58.321Z,12.80
2018-04-11T20:08:27.430Z,12.50
2018-04-11T20:10:56.514Z,12.40
2018-04-11T20:13:25.599Z,12.60
2018-04-11T20:15:54.723Z,12.50
2018-04-11T20:18:23.038Z,12.50
2018-04-11T20:20:51.372Z,12.30
2018-04-11T20:23:19.695Z,12.40
2018-04-11T20:25:47.996Z,12.10
2018-04-11T20:28:16.328Z,12.20
2018-04-11T20:30:44.655Z,12.20
2018-04-11T20:33:13.768Z,12.30
2018-04-11T20:35:42.840Z,12.20
2018-04-11T20:38:11.170Z,12.20
2018-04-11T20:40:39.477Z,12.10
2018-04-11T20:43:07.812Z,12.30
2018-04-11T20:45:36.114Z,12.10
2018-04-11T20:48:04.566Z,12.00
2018-04-11T20:50:32.883Z,11.70
2018-04-11T20:53:01.319Z,11.70
2018-04-11T20:55:29.635Z,11.60
2018-04-11T20:57:57.938Z,11.40
2018-04-11T21:00:26.278Z,11.60
2018-04-11T21:02:54.583Z,11.50
2018-04-11T21:05:22.910Z,11.50
2018-04-11T21:07:51.216Z,11.50
2018-04-11T21:10:19.575Z,11.20
2018-04-11T21:12:47.890Z,11.40
2018-04-11T21:15:17.024Z,11.60
2018-04-11T21:17:46.098Z,11.50
2018-04-11T21:20:14.444Z,11.50
2018-04-11T21:22:42.754Z,11.50
2018-04-11T21:25:11.084Z,11.40
2018-04-11T21:27:39.405Z,11.00
2018-04-11T21:30:07.754Z,10.60
2018-04-11T21:32:36.068Z,10.80
2018-04-11T21:35:04.403Z,11.00
2018-04-11T21:37:32.715Z,11.00
2018-04-11T21:40:01.059Z,11.20
2018-04-11T21:42:29.389Z,11.00
2018-04-11T21:44:58.468Z,10.90
2018-04-11T21:47:27.583Z,10.60
2018-04-11T21:49:56.651Z,10.70
2018-04-11T21:52:24.976Z,10.70
2018-04-11T21:54:53.283Z,10.60
2018-04-11T21:57:21.618Z,10.70
2018-04-11T21:59:50.687Z,10.60
2018-04-11T22:02:19.019Z,10.60
2018-04-11T22:04:47.331Z,10.50
2018-04-11T22:07:15.653Z,10.40
2018-04-11T22:09:44.726Z,10.20
2018-04-11T22:12:13.844Z,10.30
2018-04-11T22:14:42.928Z,10.10
2018-04-11T22:17:11.302Z,10.10
2018-04-11T22:19:39.596Z,10.00
2018-04-11T22:22:07.939Z,10.00
2018-04-11T22:24:36.251Z,9.70
2018-04-11T22:27:05.341Z,9.80
2018-04-11T22:29:34.415Z,9.90
2018-04-11T22:32:02.717Z,9.90
2018-04-11T22:34:31.799Z,9.80
2018-04-11T22:37:00.104Z,9.80
2018-04-11T22:39:28.428Z,9.90
2018-04-11T22:41:56.731Z,9.90
2018-04-11T22:44:25.051Z,9.90
2018-04-11T22:46:53.354Z,9.70
2018-04-11T22:49:21.672Z,9.70
